createdAt,value
2019-05-22T00:01:11.204Z,11.00
2019-05-22T00:03:47.692Z,12.68
2019-05-22T00:06:17.756Z,9.75
2019-05-22T00:08:47.981Z,9.40
2019-05-22T00:11:16.387Z,8.80
2019-05-22T00:13:47.750Z,10.78
2019-05-22T00:16:17.076Z,8.55
2019-05-22T00:18:47.193Z,9.70
2019-05-22T00:21:16.448Z,8.48
2019-05-22T00:23:46.997Z,9.08
2019-05-22T00:26:15.414Z,10.72
2019-05-22T00:28:45.564Z,10.93
2019-05-22T00:31:15.364Z,12.60
2019-05-22T00:33:44.334Z,11.43
2019-05-22T00:36:13.783Z,12.37
2019-05-22T00:38:43.432Z,10.58
2019-05-22T00:41:12.858Z,9.15
2019-05-22T00:43:44.546Z,8.40
2019-05-22T00:46:15.460Z,10.28
2019-05-22T00:48:45.509Z,10.63
2019-05-22T00:51:35.232Z,8.80
2019-05-22T00:54:10.215Z,9.23
2019-05-22T00:56:40.644Z,10.20
2019-05-22T00:59:14.073Z,9.53
2019-05-22T01:01:47.265Z,6.62
2019-05-22T01:04:17.310Z,8.93
2019-05-22T01:06:47.548Z,9.63
2019-05-22T01:09:20.780Z,8.35
2019-05-22T01:11:49.633Z,8.13
2019-05-22T01:14:18.780Z,9.90
2019-05-22T01:16:48.906Z,9.05
2019-05-22T01:19:18.708Z,8.93
2019-05-22T01:21:47.665Z,12.63
2019-05-22T01:24:17.144Z,12.23
2019-05-22T01:26:46.520Z,12.30
2019-05-22T01:29:16.046Z,12.65
2019-05-22T01:31:46.167Z,14.70
2019-05-22T01:34:16.235Z,14.23
2019-05-22T01:36:49.338Z,15.23
2019-05-22T01:39:37.766Z,14.23
2019-05-22T01:42:11.104Z,17.12
2019-05-22T01:44:40.493Z,12.35
2019-05-22T01:47:16.166Z,15.48
2019-05-22T01:49:47.793Z,15.83
2019-05-22T01:52:16.724Z,18.00
2019-05-22T01:54:46.553Z,18.60
2019-05-22T01:57:15.937Z,17.75
2019-05-22T01:59:45.088Z,19.87
2019-05-22T02:02:14.321Z,18.57
2019-05-22T02:04:42.724Z,19.90
2019-05-22T02:07:11.693Z,21.57
2019-05-22T02:09:42.297Z,19.85
2019-05-22T02:12:18.294Z,21.75
2019-05-22T02:14:50.727Z,19.98
2019-05-22T02:17:22.277Z,21.27
2019-05-22T02:19:50.954Z,20.60
2019-05-22T02:22:20.021Z,21.02
2019-05-22T02:24:50.010Z,22.13
2019-05-22T02:27:19.790Z,21.35
2019-05-22T02:29:49.113Z,23.95
2019-05-22T02:32:20.414Z,24.90
2019-05-22T02:34:48.981Z,25.02
2019-05-22T02:37:17.413Z,27.82
2019-05-22T02:39:47.700Z,25.23
2019-05-22T02:42:28.890Z,27.07
2019-05-22T02:44:58.644Z,28.70
2019-05-22T02:47:27.135Z,35.17
2019-05-22T02:49:58.329Z,34.08
2019-05-22T02:52:26.801Z,33.98
2019-05-22T02:54:55.561Z,39.13
2019-05-22T02:57:26.244Z,39.70
2019-05-22T02:59:55.665Z,42.33
2019-05-22T03:02:25.331Z,44.03
2019-05-22T03:05:01.455Z,47.17
2019-05-22T03:07:31.562Z,49.53
2019-05-22T03:10:02.213Z,48.15
2019-05-22T03:12:32.478Z,46.77
2019-05-22T03:15:02.178Z,49.53
2019-05-22T03:17:32.071Z,53.70
2019-05-22T03:20:04.014Z,48.68
2019-05-22T03:22:37.151Z,55.50
2019-05-22T03:25:09.025Z,49.25
2019-05-22T03:27:40.757Z,58.25
2019-05-22T03:30:21.316Z,57.70
2019-05-22T03:32:51.967Z,53.80
2019-05-22T03:35:22.387Z,55.98
2019-05-22T03:37:51.672Z,55.08
2019-05-22T03:40:21.593Z,52.13
2019-05-22T03:42:50.958Z,51.60
2019-05-22T03:45:22.093Z,52.67
2019-05-22T03:47:56.797Z,54.95
2019-05-22T03:50:26.329Z,54.90
2019-05-22T03:52:56.692Z,51.30
2019-05-22T03:55:25.813Z,48.87
2019-05-22T03:57:54.662Z,44.00
2019-05-22T04:00:25.737Z,44.85
2019-05-22T04:02:54.795Z,42.60
2019-05-22T04:05:25.131Z,44.25
2019-05-22T04:07:56.508Z,42.88
2019-05-22T04:10:29.026Z,43.05
2019-05-22T04:12:57.865Z,44.10
2019-05-22T04:15:27.526Z,48.02
2019-05-22T04:17:59.064Z,46.75
2019-05-22T04:20:29.757Z,46.45
2019-05-22T04:22:59.576Z,52.38
2019-05-22T04:25:28.749Z,53.10
2019-05-22T04:27:58.302Z,58.60
2019-05-22T04:30:27.323Z,54.13
2019-05-22T04:32:56.673Z,58.33
2019-05-22T04:35:25.457Z,54.90
2019-05-22T04:37:55.772Z,52.27
2019-05-22T04:40:28.150Z,58.95
2019-05-22T04:42:58.593Z,58.75
2019-05-22T04:45:28.382Z,58.38
2019-05-22T04:48:02.328Z,57.43
2019-05-22T04:50:32.408Z,53.95
2019-05-22T04:53:01.903Z,55.45
2019-05-22T04:55:31.128Z,59.20
2019-05-22T04:58:02.986Z,53.98
2019-05-22T05:00:32.440Z,57.67
2019-05-22T05:03:01.034Z,51.88
2019-05-22T05:05:36.955Z,51.37
2019-05-22T05:08:05.621Z,54.27
2019-05-22T05:10:55.107Z,46.23
2019-05-22T05:13:23.703Z,45.73
2019-05-22T05:15:52.281Z,42.38
2019-05-22T05:18:21.194Z,44.00
2019-05-22T05:20:49.757Z,43.42
2019-05-22T05:23:18.184Z,42.35
2019-05-22T05:25:46.934Z,39.45
2019-05-22T05:28:16.352Z,38.83
2019-05-22T05:30:44.833Z,37.67
2019-05-22T05:33:13.800Z,49.03
2019-05-22T05:35:43.545Z,40.10
2019-05-22T05:38:12.632Z,44.93
2019-05-22T05:40:45.215Z,45.17
2019-05-22T05:43:15.634Z,48.35
2019-05-22T05:45:46.584Z,52.40
2019-05-22T05:48:22.554Z,51.42
2019-05-22T05:50:59.955Z,49.88
2019-05-22T05:53:29.396Z,62.38
2019-05-22T05:56:13.540Z,55.35
2019-05-22T05:58:42.529Z,54.50
2019-05-22T06:01:18.898Z,55.35
2019-05-22T06:03:47.483Z,58.10
2019-05-22T06:06:25.677Z,60.33
2019-05-22T06:08:55.987Z,61.55
2019-05-22T06:11:52.943Z,65.20
2019-05-22T06:14:30.285Z,63.10
2019-05-22T06:17:04.886Z,64.85
2019-05-22T06:19:36.572Z,63.08
2019-05-22T06:22:05.640Z,64.25
2019-05-22T06:24:37.199Z,59.77
2019-05-22T06:27:09.332Z,59.95
2019-05-22T06:29:49.510Z,63.42
2019-05-22T06:32:57.549Z,59.67
2019-05-22T06:35:29.640Z,55.98
2019-05-22T06:38:10.291Z,53.17
2019-05-22T06:40:39.914Z,60.52
2019-05-22T06:43:21.592Z,61.37
2019-05-22T06:45:50.000Z,65.52
2019-05-22T06:48:18.417Z,57.10
2019-05-22T06:50:49.305Z,54.45
2019-05-22T06:53:17.130Z,54.55
2019-05-22T06:55:45.546Z,57.30
2019-05-22T06:58:14.396Z,51.00
2019-05-22T07:00:43.273Z,45.95
2019-05-22T07:03:12.333Z,47.35
2019-05-22T07:05:41.690Z,46.10
2019-05-22T07:08:11.180Z,43.63
2019-05-22T07:10:39.705Z,43.05
2019-05-22T07:13:11.073Z,46.20
2019-05-22T07:15:43.950Z,40.60
2019-05-22T07:18:14.607Z,43.25
2019-05-22T07:20:44.650Z,42.15
2019-05-22T07:23:15.070Z,40.80
2019-05-22T07:25:46.099Z,42.33
2019-05-22T07:28:17.931Z,39.03
2019-05-22T07:30:47.978Z,46.50
2019-05-22T07:33:17.923Z,41.05
2019-05-22T07:36:07.625Z,40.95
2019-05-22T07:38:19.249Z,39.13
2019-05-22T07:40:50.605Z,42.35
2019-05-22T07:43:19.579Z,40.85
2019-05-22T07:45:48.264Z,39.63
2019-05-22T07:48:18.001Z,37.17
2019-05-22T07:50:48.866Z,41.20
2019-05-22T07:53:17.488Z,37.35
2019-05-22T07:55:47.249Z,38.42
2019-05-22T07:58:17.291Z,37.78
2019-05-22T08:00:49.995Z,36.73
2019-05-22T08:03:20.241Z,38.42
2019-05-22T08:05:51.721Z,38.65
2019-05-22T08:08:22.449Z,33.00
2019-05-22T08:10:52.306Z,36.17
2019-05-22T08:13:20.800Z,34.48
2019-05-22T08:15:49.297Z,36.45
2019-05-22T08:18:18.059Z,37.23
2019-05-22T08:20:46.476Z,37.85
2019-05-22T08:23:15.843Z,32.50
2019-05-22T08:25:44.452Z,33.55
2019-05-22T08:28:13.532Z,30.30
2019-05-22T08:30:42.085Z,32.95
2019-05-22T08:33:14.048Z,30.90
2019-05-22T08:35:43.967Z,33.05
2019-05-22T08:38:13.973Z,33.02
2019-05-22T08:40:43.431Z,29.98
2019-05-22T08:43:13.077Z,31.52
2019-05-22T08:45:41.716Z,30.57
2019-05-22T08:48:12.150Z,33.65
2019-05-22T08:50:42.161Z,30.10
2019-05-22T08:53:14.069Z,34.78
2019-05-22T08:55:43.486Z,36.00
2019-05-22T08:58:12.846Z,35.25
2019-05-22T09:00:41.673Z,37.17
2019-05-22T09:03:10.660Z,30.50
2019-05-22T09:05:39.065Z,36.10
2019-05-22T09:08:07.525Z,33.53
2019-05-22T09:10:36.132Z,32.83
2019-05-22T09:13:04.751Z,32.10
2019-05-22T09:15:34.830Z,30.35
2019-05-22T09:18:04.172Z,31.93
2019-05-22T09:20:48.204Z,30.45
2019-05-22T09:23:05.169Z,33.85
2019-05-22T09:25:33.583Z,30.08
2019-05-22T09:28:02.155Z,30.27
2019-05-22T09:30:30.571Z,27.42
2019-05-22T09:32:59.390Z,28.50
2019-05-22T09:35:28.273Z,29.65
2019-05-22T09:37:57.288Z,31.17
2019-05-22T09:40:25.766Z,29.02
2019-05-22T09:42:54.340Z,26.90
2019-05-22T09:45:23.189Z,29.20
2019-05-22T09:47:53.055Z,33.42
2019-05-22T09:50:23.547Z,32.25
2019-05-22T09:52:57.763Z,33.15
2019-05-22T09:55:22.813Z,34.73
2019-05-22T09:57:51.729Z,37.73
2019-05-22T10:00:20.648Z,37.90
2019-05-22T10:02:49.529Z,40.28
2019-05-22T10:05:18.885Z,42.50
2019-05-22T10:07:59.056Z,35.55
2019-05-22T10:10:18.285Z,36.88
2019-05-22T10:12:47.282Z,39.65
2019-05-22T10:15:16.629Z,36.80
2019-05-22T10:17:49.823Z,36.95
2019-05-22T10:20:20.330Z,36.90
2019-05-22T10:22:49.357Z,32.48
2019-05-22T10:25:18.372Z,33.23
2019-05-22T10:27:47.921Z,33.02
2019-05-22T10:30:20.316Z,33.55
2019-05-22T10:32:49.476Z,30.25
2019-05-22T10:35:19.589Z,35.45
2019-05-22T10:37:48.002Z,31.48
2019-05-22T10:40:17.356Z,31.10
2019-05-22T10:42:46.477Z,33.63
2019-05-22T10:45:15.532Z,32.98
2019-05-22T10:47:44.455Z,33.90
2019-05-22T10:50:15.131Z,37.63
2019-05-22T10:52:43.544Z,34.30
2019-05-22T10:55:14.264Z,33.70
2019-05-22T10:57:44.342Z,34.03
2019-05-22T11:00:16.052Z,30.45
2019-05-22T11:02:44.909Z,32.33
2019-05-22T11:05:13.874Z,35.50
2019-05-22T11:07:42.747Z,35.40
2019-05-22T11:10:12.133Z,34.08
2019-05-22T11:12:41.039Z,30.60
2019-05-22T11:15:10.157Z,34.15
2019-05-22T11:17:39.012Z,33.80
2019-05-22T11:20:09.749Z,42.73
2019-05-22T11:22:38.301Z,37.90
2019-05-22T11:25:13.016Z,35.40
2019-05-22T11:27:41.775Z,37.20
2019-05-22T11:30:12.121Z,41.37
2019-05-22T11:32:40.781Z,39.45
2019-05-22T11:35:10.222Z,38.95
2019-05-22T11:37:39.463Z,40.28
2019-05-22T11:40:09.962Z,39.50
2019-05-22T11:42:39.212Z,36.75
2019-05-22T11:45:12.986Z,33.92
2019-05-22T11:47:41.952Z,35.83
2019-05-22T11:50:12.523Z,33.13
2019-05-22T11:52:42.121Z,30.80
2019-05-22T11:55:12.827Z,31.65
2019-05-22T11:57:43.258Z,35.40
2019-05-22T12:00:14.989Z,33.38
2019-05-22T12:02:45.143Z,33.90
2019-05-22T12:05:15.284Z,31.70
2019-05-22T12:07:46.084Z,30.82
2019-05-22T12:10:15.904Z,31.17
2019-05-22T12:12:45.102Z,33.35
2019-05-22T12:15:14.938Z,32.17
2019-05-22T12:56:25.751Z,28.87
2019-05-22T12:58:55.672Z,27.80
2019-05-22T13:01:24.942Z,29.45
2019-05-22T13:03:55.719Z,29.98
2019-05-22T13:06:25.417Z,27.25
2019-05-22T13:08:53.928Z,27.85
2019-05-22T13:11:22.346Z,28.55
2019-05-22T13:13:51.428Z,26.77
2019-05-22T13:16:20.220Z,24.18
2019-05-22T13:18:50.429Z,28.85
2019-05-22T13:21:22.417Z,26.23
2019-05-22T13:23:53.279Z,27.70
2019-05-22T13:26:23.686Z,31.33
2019-05-22T13:28:53.084Z,26.87
2019-05-22T13:31:22.253Z,24.80
2019-05-22T13:33:52.644Z,28.42
2019-05-22T13:36:22.340Z,26.73
2019-05-22T13:38:50.820Z,35.35
2019-05-22T13:41:19.765Z,31.82
2019-05-22T13:43:49.022Z,29.48
2019-05-22T13:46:17.780Z,31.42
2019-05-22T13:48:46.613Z,31.57
2019-05-22T13:51:15.306Z,33.90
2019-05-22T13:53:44.772Z,28.75
2019-05-22T13:56:14.025Z,25.48
2019-05-22T13:58:43.352Z,26.48
2019-05-22T14:01:12.302Z,30.15
2019-05-22T14:03:41.065Z,32.67
2019-05-22T14:06:09.876Z,32.83
2019-05-22T14:08:38.564Z,32.38
2019-05-22T14:11:07.638Z,34.08
2019-05-22T14:13:37.265Z,33.45
2019-05-22T14:16:06.197Z,32.20
2019-05-22T14:18:34.932Z,32.35
2019-05-22T14:21:03.381Z,30.10
2019-05-22T14:23:31.795Z,29.92
2019-05-22T14:26:00.299Z,29.35
2019-05-22T14:28:30.352Z,32.60
2019-05-22T14:30:58.836Z,28.32
2019-05-22T14:33:28.330Z,33.20
2019-05-22T14:35:58.438Z,34.03
2019-05-22T14:38:27.790Z,29.80
2019-05-22T14:40:56.649Z,34.00
2019-05-22T14:43:25.142Z,33.53
2019-05-22T14:45:54.128Z,35.00
2019-05-22T14:48:22.686Z,30.25
2019-05-22T14:50:51.204Z,31.10
2019-05-22T14:53:19.857Z,31.75
2019-05-22T14:55:49.981Z,35.13
2019-05-22T14:58:19.240Z,30.08
2019-05-22T15:00:48.518Z,30.25
2019-05-22T15:03:17.635Z,27.93
2019-05-22T15:05:46.121Z,28.05
2019-05-22T15:08:14.680Z,28.02
2019-05-22T15:10:43.536Z,31.23
2019-05-22T15:13:11.950Z,28.30
2019-05-22T15:15:40.969Z,29.95
2019-05-22T15:18:11.068Z,26.97
2019-05-22T15:20:56.874Z,28.25
2019-05-22T15:23:25.891Z,25.57
2019-05-22T15:25:54.361Z,29.18
2019-05-22T15:28:26.632Z,30.52
2019-05-22T15:30:54.590Z,29.98
2019-05-22T15:33:23.869Z,30.02
2019-05-22T15:35:53.647Z,25.35
2019-05-22T15:38:22.751Z,25.10
2019-05-22T15:40:53.184Z,26.65
2019-05-22T15:43:23.632Z,26.10
2019-05-22T15:45:53.298Z,25.62
2019-05-22T15:48:30.281Z,26.50
2019-05-22T15:51:02.482Z,27.75
2019-05-22T15:53:33.305Z,25.08
2019-05-22T15:56:07.021Z,25.70
2019-05-22T15:58:37.262Z,29.10
2019-05-22T16:01:08.164Z,25.65
2019-05-22T16:03:37.832Z,25.68
2019-05-22T16:06:07.288Z,25.82
2019-05-22T16:08:36.228Z,26.48
2019-05-22T16:11:08.860Z,25.90
2019-05-22T16:13:38.790Z,25.17
2019-05-22T16:16:09.594Z,27.70
2019-05-22T16:18:38.536Z,26.35
2019-05-22T16:21:10.693Z,25.25
2019-05-22T16:23:40.175Z,23.80
2019-05-22T16:26:11.532Z,22.77
2019-05-22T16:28:40.833Z,19.87
2019-05-22T16:31:10.384Z,20.25
2019-05-22T16:33:41.588Z,22.22
2019-05-22T16:36:10.995Z,20.23
2019-05-22T16:38:39.976Z,19.87
2019-05-22T16:41:09.451Z,20.80
2019-05-22T16:43:48.889Z,19.15
2019-05-22T16:46:12.563Z,19.15
2019-05-22T16:48:43.027Z,17.20
2019-05-22T16:51:13.296Z,20.08
2019-05-22T16:53:43.446Z,17.62
2019-05-22T16:56:12.111Z,17.75
2019-05-22T16:58:40.537Z,17.27
2019-05-22T17:01:09.954Z,21.05
2019-05-22T17:03:40.070Z,17.40
2019-05-22T17:06:08.764Z,18.73
2019-05-22T17:08:37.245Z,16.77
2019-05-22T17:11:07.566Z,18.00
2019-05-22T17:13:36.802Z,18.57
2019-05-22T17:16:06.816Z,17.12
2019-05-22T17:18:46.955Z,16.62
2019-05-22T17:21:06.737Z,18.92
2019-05-22T17:23:35.703Z,17.73
2019-05-22T17:26:05.039Z,19.82
2019-05-22T17:28:34.359Z,18.80
2019-05-22T17:31:03.111Z,17.42
2019-05-22T17:33:33.530Z,17.35
2019-05-22T17:36:05.759Z,17.85
2019-05-22T17:38:33.761Z,18.73
2019-05-22T17:41:03.317Z,17.10
2019-05-22T17:43:33.622Z,16.65
2019-05-22T17:46:03.967Z,16.57
2019-05-22T17:48:33.812Z,15.85
2019-05-22T17:51:03.184Z,16.95
2019-05-22T17:53:32.316Z,16.05
2019-05-22T17:56:02.801Z,16.73
2019-05-22T17:58:31.266Z,14.98
2019-05-22T18:01:00.906Z,17.05
2019-05-22T18:03:29.621Z,16.27
2019-05-22T18:05:58.406Z,17.10
2019-05-22T18:08:27.967Z,17.37
2019-05-22T18:10:57.099Z,16.80
2019-05-22T18:13:25.669Z,19.42
2019-05-22T18:15:54.099Z,17.80
2019-05-22T18:18:23.118Z,15.13
2019-05-22T18:20:52.163Z,17.35
2019-05-22T18:23:21.259Z,16.50
2019-05-22T18:25:49.664Z,14.70
2019-05-22T18:28:18.270Z,21.05
2019-05-22T18:30:47.057Z,16.85
2019-05-22T18:33:16.104Z,14.90
2019-05-22T18:35:44.698Z,15.58
2019-05-22T18:38:13.552Z,17.98
2019-05-22T18:40:42.415Z,17.55
2019-05-22T18:43:11.557Z,17.12
2019-05-22T18:45:40.503Z,17.17
2019-05-22T18:48:09.877Z,15.23
2019-05-22T18:50:38.640Z,16.45
2019-05-22T18:53:07.794Z,13.85
2019-05-22T18:55:36.501Z,17.35
2019-05-22T18:58:05.233Z,16.40
2019-05-22T19:00:34.591Z,19.52
2019-05-22T19:03:03.533Z,14.80
2019-05-22T19:05:33.679Z,15.88
2019-05-22T19:08:02.315Z,15.50
2019-05-22T19:10:31.918Z,16.73
2019-05-22T19:13:01.129Z,15.40
2019-05-22T19:15:30.526Z,15.78
2019-05-22T19:17:59.523Z,17.40
2019-05-22T19:20:28.576Z,17.70
2019-05-22T19:23:01.513Z,18.15
2019-05-22T19:25:30.374Z,17.02
2019-05-22T19:27:59.286Z,19.50
2019-05-22T19:30:28.785Z,18.75
2019-05-22T19:32:58.072Z,17.80
2019-05-22T19:35:30.363Z,18.15
2019-05-22T19:38:02.507Z,19.12
2019-05-22T19:40:31.806Z,19.65
2019-05-22T19:43:01.836Z,16.87
2019-05-22T19:45:33.222Z,18.55
2019-05-22T19:48:02.897Z,19.23
2019-05-22T19:50:33.748Z,21.27
2019-05-22T19:53:18.101Z,19.17
2019-05-22T19:55:34.888Z,18.60
2019-05-22T19:58:04.461Z,21.60
2019-05-22T20:00:34.258Z,21.60
2019-05-22T20:03:03.796Z,26.27
2019-05-22T20:05:34.403Z,20.77
2019-05-22T20:08:04.725Z,17.73
2019-05-22T20:10:33.861Z,19.90
2019-05-22T20:13:04.486Z,21.75
2019-05-22T20:15:33.392Z,22.37
2019-05-22T20:18:03.106Z,21.75
2019-05-22T20:20:32.506Z,21.75
2019-05-22T20:23:01.875Z,21.80
2019-05-22T20:25:31.027Z,22.65
2019-05-22T20:28:01.995Z,21.62
2019-05-22T20:30:31.411Z,19.73
2019-05-22T20:33:00.756Z,23.75
2019-05-22T20:35:29.807Z,24.47
2019-05-22T20:38:00.474Z,21.48
2019-05-22T20:40:29.194Z,24.87
2019-05-22T20:42:57.848Z,22.48
2019-05-22T20:45:27.616Z,23.65
2019-05-22T20:48:06.227Z,23.22
2019-05-22T20:50:36.410Z,22.58
2019-05-22T20:53:07.330Z,24.23
2019-05-22T20:55:37.019Z,24.70
2019-05-22T20:58:08.108Z,23.45
2019-05-22T21:00:36.674Z,23.05
2019-05-22T21:03:08.189Z,25.85
2019-05-22T21:05:37.325Z,23.47
2019-05-22T21:08:09.409Z,25.85
2019-05-22T21:10:40.585Z,27.05
2019-05-22T21:13:09.731Z,22.25
2019-05-22T21:15:38.582Z,21.23
2019-05-22T21:18:07.310Z,22.17
2019-05-22T21:20:53.325Z,22.35
2019-05-22T21:23:09.289Z,24.98
2019-05-22T21:25:38.718Z,21.23
2019-05-22T21:28:07.885Z,23.20
2019-05-22T21:30:38.201Z,26.75
2019-05-22T21:33:07.026Z,21.02
2019-05-22T21:35:36.101Z,26.02
2019-05-22T21:38:05.298Z,23.00
2019-05-22T21:40:34.290Z,25.95
2019-05-22T21:43:03.227Z,24.82
2019-05-22T21:45:32.009Z,28.60
2019-05-22T21:48:01.055Z,26.87
2019-05-22T21:50:29.794Z,24.85
2019-05-22T21:52:59.153Z,25.35
2019-05-22T21:55:28.277Z,25.50
2019-05-22T21:57:57.284Z,24.00
2019-05-22T22:00:42.671Z,28.95
2019-05-22T22:03:13.367Z,27.85
2019-05-22T22:05:42.224Z,25.50
2019-05-22T22:08:11.425Z,27.82
2019-05-22T22:10:40.219Z,25.45
2019-05-22T22:13:09.304Z,27.42
2019-05-22T22:15:41.176Z,31.35
2019-05-22T22:18:10.267Z,26.60
2019-05-22T22:20:39.222Z,32.13
2019-05-22T22:23:07.814Z,28.47
2019-05-22T22:25:36.964Z,31.73
2019-05-22T22:28:05.856Z,32.85
2019-05-22T22:30:35.981Z,29.95
2019-05-22T22:33:07.852Z,30.37
2019-05-22T22:35:36.465Z,33.30
2019-05-22T22:38:06.527Z,30.95
2019-05-22T22:40:35.798Z,29.23
2019-05-22T22:43:06.234Z,31.10
2019-05-22T22:45:43.668Z,32.80
2019-05-22T22:48:16.408Z,33.45
2019-05-22T22:50:45.710Z,30.25
2019-05-22T22:53:15.620Z,29.60
2019-05-22T22:55:44.414Z,37.17
2019-05-22T22:58:17.086Z,28.57
2019-05-22T23:00:46.225Z,34.75
2019-05-22T23:03:18.200Z,35.38
2019-05-22T23:05:48.647Z,30.35
2019-05-22T23:08:26.249Z,32.53
2019-05-22T23:10:55.216Z,31.55
2019-05-22T23:13:25.236Z,32.85
2019-05-22T23:15:54.512Z,30.72
2019-05-22T23:18:45.760Z,32.10
2019-05-22T23:21:14.738Z,31.20
2019-05-22T23:23:42.245Z,29.87
2019-05-22T23:26:11.562Z,33.75
2019-05-22T23:28:41.605Z,34.83
2019-05-22T23:31:11.606Z,30.50
2019-05-22T23:33:40.428Z,31.60
2019-05-22T23:36:10.666Z,30.43
2019-05-22T23:38:39.505Z,31.50
2019-05-22T23:41:08.855Z,30.02
2019-05-22T23:43:38.001Z,29.77
2019-05-22T23:46:08.499Z,33.42
2019-05-22T23:48:37.893Z,33.67
2019-05-22T23:51:08.122Z,31.65
2019-05-22T23:53:37.606Z,30.45
2019-05-22T23:56:06.290Z,32.30
2019-05-22T23:58:49.805Z,34.10
